createdAt,value
2019-05-23T00:00:01.273Z,7.90
2019-05-23T00:02:48.208Z,5.73
2019-05-23T00:05:36.887Z,7.23
2019-05-23T00:08:29.294Z,6.17
2019-05-23T00:11:30.124Z,6.43
2019-05-23T00:14:05.327Z,6.17
2019-05-23T00:16:34.905Z,6.03
2019-05-23T00:19:04.610Z,6.60
2019-05-23T00:21:34.848Z,6.93
2019-05-23T00:24:05.260Z,5.50
2019-05-23T00:26:36.073Z,6.97
2019-05-23T00:29:10.405Z,6.93
2019-05-23T00:31:47.991Z,7.87
2019-05-23T00:34:19.277Z,6.07
2019-05-23T00:36:49.725Z,6.37
2019-05-23T00:39:20.125Z,8.27
2019-05-23T00:41:50.836Z,7.33
2019-05-23T00:44:21.066Z,7.33
2019-05-23T00:46:50.335Z,6.63
2019-05-23T00:49:20.040Z,7.20
2019-05-23T00:51:49.368Z,6.60
2019-05-23T00:54:19.600Z,7.13
2019-05-23T00:56:49.046Z,9.70
2019-05-23T00:59:27.254Z,7.33
2019-05-23T01:01:50.195Z,7.10
2019-05-23T01:04:20.918Z,6.77
2019-05-23T01:06:50.900Z,8.03
2019-05-23T01:09:20.497Z,8.97
2019-05-23T01:11:50.330Z,7.70
2019-05-23T01:14:21.526Z,8.00
2019-05-23T01:16:51.411Z,8.27
2019-05-23T01:19:21.401Z,7.70
2019-05-23T01:22:00.749Z,7.73
2019-05-23T01:24:43.329Z,10.73
2019-05-23T01:27:14.394Z,6.80
2019-05-23T01:29:50.348Z,6.80
2019-05-23T01:32:26.921Z,7.43
2019-05-23T01:34:58.037Z,7.43
2019-05-23T01:37:27.334Z,7.00
2019-05-23T01:39:56.975Z,10.03
2019-05-23T01:42:28.367Z,7.17
2019-05-23T01:44:59.511Z,6.50
2019-05-23T01:47:29.316Z,6.93
2019-05-23T01:49:59.086Z,9.13
2019-05-23T01:52:30.127Z,7.30
2019-05-23T01:55:00.469Z,6.87
2019-05-23T01:57:30.445Z,7.33
2019-05-23T02:00:10.039Z,7.00
2019-05-23T02:02:30.900Z,7.17
2019-05-23T02:05:00.292Z,7.00
2019-05-23T02:07:31.643Z,7.50
2019-05-23T02:10:00.947Z,7.27
2019-05-23T02:12:30.871Z,8.67
2019-05-23T02:15:00.893Z,7.60
2019-05-23T02:17:31.533Z,7.07
2019-05-23T02:20:01.774Z,7.00
2019-05-23T02:22:32.162Z,7.70
2019-05-23T02:25:03.144Z,7.37
2019-05-23T02:27:33.202Z,7.80
2019-05-23T02:30:02.818Z,7.90
2019-05-23T02:32:34.186Z,7.67
2019-05-23T02:35:04.559Z,7.00
2019-05-23T02:37:59.198Z,8.30
2019-05-23T02:40:59.611Z,7.60
2019-05-23T02:43:31.811Z,7.13
2019-05-23T02:46:06.108Z,8.90
2019-05-23T02:48:43.413Z,7.30
2019-05-23T02:51:19.449Z,7.60
2019-05-23T02:53:53.074Z,7.50
2019-05-23T02:56:23.479Z,7.63
2019-05-23T02:59:18.202Z,8.10
2019-05-23T03:02:45.615Z,7.73
2019-05-23T03:05:18.134Z,12.07
2019-05-23T03:07:47.926Z,10.00
2019-05-23T03:10:20.611Z,9.43
2019-05-23T03:12:52.983Z,11.93
2019-05-23T03:15:25.251Z,7.60
2019-05-23T03:17:58.678Z,8.10
2019-05-23T03:20:29.914Z,9.30
2019-05-23T03:23:04.141Z,7.43
2019-05-23T03:26:15.795Z,7.73
2019-05-23T03:28:45.973Z,8.70
2019-05-23T03:31:29.538Z,7.00
2019-05-23T03:33:54.684Z,7.87
2019-05-23T03:36:25.112Z,7.17
2019-05-23T03:38:54.728Z,7.80
2019-05-23T03:41:24.018Z,7.97
2019-05-23T03:43:54.211Z,7.60
2019-05-23T03:46:26.916Z,7.80
2019-05-23T03:48:58.104Z,7.20
2019-05-23T03:51:27.454Z,8.00
2019-05-23T03:53:57.529Z,9.50
2019-05-23T03:56:26.857Z,9.00
2019-05-23T03:58:58.480Z,7.73
2019-05-23T04:01:46.247Z,8.37
2019-05-23T04:04:03.219Z,8.03
2019-05-23T04:06:33.125Z,8.03
2019-05-23T04:09:04.202Z,8.67
2019-05-23T04:11:34.331Z,8.43
2019-05-23T04:14:03.576Z,7.90
2019-05-23T04:16:32.972Z,8.50
2019-05-23T04:19:02.506Z,8.90
2019-05-23T04:21:31.717Z,8.73
2019-05-23T04:24:01.538Z,10.30
2019-05-23T04:26:31.065Z,7.87
2019-05-23T04:29:01.340Z,9.40
2019-05-23T04:31:30.959Z,8.47
2019-05-23T04:34:00.489Z,8.20
2019-05-23T04:36:29.701Z,8.47
2019-05-23T04:38:59.863Z,8.03
2019-05-23T04:41:29.312Z,9.10
2019-05-23T04:43:58.553Z,10.27
2019-05-23T04:46:27.812Z,7.73
2019-05-23T04:48:58.462Z,8.13
2019-05-23T04:51:28.216Z,8.00
2019-05-23T04:53:57.685Z,7.67
2019-05-23T04:56:27.122Z,8.90
2019-05-23T04:58:57.274Z,7.63
2019-05-23T05:01:27.259Z,8.23
2019-05-23T05:03:57.923Z,7.57
2019-05-23T05:06:27.259Z,8.67
2019-05-23T05:08:57.547Z,7.83
2019-05-23T05:11:30.474Z,10.00
2019-05-23T05:13:59.648Z,8.83
2019-05-23T05:16:29.047Z,7.30
2019-05-23T05:18:58.600Z,9.20
2019-05-23T05:21:27.836Z,8.60
2019-05-23T05:23:57.752Z,10.47
2019-05-23T05:26:27.154Z,8.90
2019-05-23T05:28:58.740Z,8.87
2019-05-23T05:31:28.275Z,10.00
2019-05-23T05:33:57.564Z,10.20
2019-05-23T05:36:27.022Z,9.20
2019-05-23T05:38:58.633Z,11.17
2019-05-23T05:41:28.976Z,38.70
2019-05-23T05:43:58.195Z,11.57
2019-05-23T05:46:27.515Z,9.80
2019-05-23T05:48:57.736Z,12.87
2019-05-23T05:51:28.233Z,11.47
2019-05-23T05:53:57.577Z,11.03
2019-05-23T05:56:26.932Z,11.17
2019-05-23T05:58:56.174Z,11.10
2019-05-23T06:01:33.851Z,14.03
2019-05-23T06:03:57.410Z,14.23
2019-05-23T06:06:34.166Z,12.73
2019-05-23T06:09:10.483Z,12.17
2019-05-23T06:11:41.203Z,15.20
2019-05-23T06:14:10.572Z,11.97
2019-05-23T06:16:40.368Z,11.47
2019-05-23T06:19:10.313Z,11.80
2019-05-23T06:21:40.348Z,13.27
2019-05-23T06:24:09.681Z,13.40
2019-05-23T06:26:39.989Z,11.20
2019-05-23T06:29:09.441Z,14.13
2019-05-23T06:31:39.365Z,13.97
2019-05-23T06:34:08.785Z,11.30
2019-05-23T06:36:38.052Z,16.07
2019-05-23T06:39:09.085Z,11.17
2019-05-23T06:41:38.404Z,16.17
2019-05-23T06:44:09.152Z,18.23
2019-05-23T06:46:38.746Z,13.93
2019-05-23T06:49:08.044Z,17.77
2019-05-23T06:51:37.767Z,14.43
2019-05-23T06:54:07.979Z,13.03
2019-05-23T06:56:37.237Z,14.37
2019-05-23T06:59:06.934Z,14.47
2019-05-23T07:01:36.297Z,13.77
2019-05-23T07:04:07.065Z,17.23
2019-05-23T07:06:36.398Z,15.00
2019-05-23T07:09:11.955Z,17.53
2019-05-23T07:11:41.249Z,20.13
2019-05-23T07:14:11.756Z,13.83
2019-05-23T07:16:41.498Z,16.73
2019-05-23T07:19:11.057Z,16.27
2019-05-23T07:21:40.755Z,15.10
2019-05-23T07:24:12.624Z,17.03
2019-05-23T07:26:41.950Z,19.30
2019-05-23T07:29:13.444Z,18.20
2019-05-23T07:31:42.748Z,19.17
2019-05-23T07:34:12.252Z,15.07
2019-05-23T07:36:41.989Z,15.20
2019-05-23T07:39:12.005Z,17.47
2019-05-23T07:41:41.860Z,17.23
2019-05-23T07:44:11.525Z,25.23
2019-05-23T07:46:42.524Z,14.57
2019-05-23T07:49:12.454Z,15.83
2019-05-23T07:51:42.758Z,17.83
2019-05-23T07:54:31.233Z,16.93
2019-05-23T07:57:01.825Z,17.43
2019-05-23T07:59:31.676Z,19.87
2019-05-23T08:02:12.047Z,14.63
2019-05-23T08:04:41.899Z,16.57
2019-05-23T08:07:12.764Z,21.03
2019-05-23T08:09:42.786Z,16.03
2019-05-23T08:12:12.243Z,17.37
2019-05-23T08:14:41.480Z,20.40
2019-05-23T08:17:11.667Z,19.80
2019-05-23T08:19:49.668Z,20.37
2019-05-23T08:22:12.285Z,20.30
2019-05-23T08:24:42.182Z,22.00
2019-05-23T08:27:12.080Z,22.20
2019-05-23T08:29:43.247Z,28.17
2019-05-23T08:32:13.074Z,28.63
2019-05-23T08:34:43.752Z,27.70
2019-05-23T08:37:14.206Z,25.20
2019-05-23T08:39:44.508Z,25.77
2019-05-23T08:42:13.733Z,28.57
2019-05-23T08:44:43.587Z,28.33
2019-05-23T08:47:13.195Z,27.63
2019-05-23T08:49:42.814Z,28.50
2019-05-23T08:52:12.096Z,24.60
2019-05-23T08:54:41.953Z,31.23
2019-05-23T08:57:13.131Z,31.90
2019-05-23T08:59:43.278Z,31.70
2019-05-23T09:02:13.291Z,31.77
2019-05-23T09:05:02.227Z,28.07
2019-05-23T09:07:14.513Z,37.90
2019-05-23T09:09:44.995Z,37.23
2019-05-23T09:12:14.905Z,31.80
2019-05-23T09:14:44.147Z,29.87
2019-05-23T09:17:13.782Z,35.27
2019-05-23T09:19:43.369Z,27.87
2019-05-23T09:22:12.614Z,32.27
2019-05-23T09:24:41.958Z,31.90
2019-05-23T09:27:11.855Z,30.23
2019-05-23T09:29:42.325Z,25.57
2019-05-23T09:32:11.805Z,28.30
2019-05-23T09:34:41.105Z,29.00
2019-05-23T09:37:11.815Z,27.07
2019-05-23T09:39:42.373Z,30.17
2019-05-23T09:42:12.295Z,34.07
2019-05-23T09:44:41.973Z,28.50
2019-05-23T09:47:11.440Z,27.57
2019-05-23T09:49:40.744Z,23.33
2019-05-23T09:52:11.340Z,29.30
2019-05-23T09:54:41.484Z,21.73
2019-05-23T09:57:11.673Z,30.37
2019-05-23T09:59:40.931Z,28.60
2019-05-23T10:02:12.088Z,20.27
2019-05-23T10:04:41.415Z,17.93
2019-05-23T10:07:10.640Z,20.83
2019-05-23T10:09:40.023Z,20.73
2019-05-23T10:12:09.487Z,18.90
2019-05-23T10:14:39.573Z,19.00
2019-05-23T10:17:09.240Z,19.67
2019-05-23T10:19:38.541Z,19.47
2019-05-23T10:22:08.443Z,19.17
2019-05-23T10:24:37.953Z,17.30
2019-05-23T10:27:08.999Z,20.30
2019-05-23T10:29:38.254Z,18.97
2019-05-23T10:32:09.507Z,20.73
2019-05-23T10:34:38.679Z,19.67
2019-05-23T10:37:09.651Z,19.13
2019-05-23T10:39:39.286Z,21.00
2019-05-23T10:42:08.644Z,18.67
2019-05-23T10:44:38.388Z,21.97
2019-05-23T10:47:07.752Z,16.17
2019-05-23T10:49:36.961Z,16.23
2019-05-23T10:52:06.800Z,12.17
2019-05-23T10:54:36.076Z,12.17
2019-05-23T10:57:05.470Z,10.47
2019-05-23T10:59:34.903Z,10.83
2019-05-23T11:02:05.859Z,10.47
2019-05-23T11:04:35.162Z,10.97
2019-05-23T11:07:06.002Z,10.40
2019-05-23T11:09:38.175Z,11.40
2019-05-23T11:12:08.823Z,10.47
2019-05-23T11:14:38.224Z,9.50
2019-05-23T11:17:10.142Z,8.57
2019-05-23T11:19:39.493Z,10.00
2019-05-23T11:22:08.770Z,9.60
2019-05-23T11:24:41.423Z,10.40
2019-05-23T11:27:10.658Z,9.00
2019-05-23T11:29:39.838Z,6.87
2019-05-23T11:32:10.654Z,9.07
2019-05-23T11:34:40.049Z,6.37
2019-05-23T11:37:09.347Z,6.20
2019-05-23T11:39:42.236Z,7.60
2019-05-23T11:42:10.289Z,8.77
2019-05-23T11:44:41.521Z,7.87
2019-05-23T11:47:10.989Z,7.33
2019-05-23T11:49:40.474Z,6.50
2019-05-23T11:52:10.401Z,7.07
2019-05-23T11:54:40.072Z,7.40
2019-05-23T11:57:09.681Z,6.80
2019-05-23T11:59:39.623Z,7.27
2019-05-23T12:02:15.712Z,7.10
2019-05-23T12:04:45.329Z,8.03
2019-05-23T12:07:24.948Z,8.63
2019-05-23T12:09:54.961Z,10.47
2019-05-23T12:12:24.137Z,8.40
2019-05-23T12:14:53.906Z,9.10
2019-05-23T12:17:24.892Z,9.33
2019-05-23T12:19:54.310Z,9.33
2019-05-23T12:22:24.402Z,10.03
2019-05-23T12:24:54.423Z,11.73
2019-05-23T12:27:23.630Z,9.70
2019-05-23T12:29:55.170Z,9.73
2019-05-23T12:32:24.830Z,12.00
2019-05-23T12:35:09.485Z,10.93
2019-05-23T12:37:28.319Z,12.20
2019-05-23T12:39:57.992Z,12.77
2019-05-23T12:42:27.345Z,11.67
2019-05-23T12:44:57.739Z,10.87
2019-05-23T12:47:52.123Z,10.57
2019-05-23T12:50:25.841Z,11.53
2019-05-23T12:52:55.035Z,9.90
2019-05-23T12:55:24.882Z,10.23
2019-05-23T12:57:54.658Z,9.33
2019-05-23T13:00:47.063Z,11.03
2019-05-23T13:03:17.140Z,11.27
2019-05-23T13:05:48.184Z,82.73
2019-05-23T13:08:17.624Z,181.13
2019-05-23T13:10:47.212Z,18.83
2019-05-23T13:13:16.608Z,11.70
2019-05-23T13:15:46.296Z,10.47
2019-05-23T13:18:16.101Z,11.60
2019-05-23T13:20:45.503Z,11.90
2019-05-23T13:23:20.779Z,12.17
2019-05-23T13:25:46.483Z,11.33
2019-05-23T13:28:15.832Z,13.33
2019-05-23T13:30:47.551Z,14.60
2019-05-23T13:33:17.281Z,16.10
2019-05-23T13:35:47.127Z,13.77
2019-05-23T13:38:16.946Z,12.60
2019-05-23T13:40:46.456Z,10.40
2019-05-23T13:43:15.669Z,16.57
2019-05-23T13:45:45.444Z,13.57
2019-05-23T13:48:14.703Z,11.80
2019-05-23T13:50:44.053Z,12.20
2019-05-23T13:53:13.556Z,12.47
2019-05-23T13:55:43.674Z,12.73
2019-05-23T13:58:14.934Z,10.77
2019-05-23T14:00:44.623Z,14.37
2019-05-23T14:03:14.070Z,15.20
2019-05-23T14:05:43.630Z,15.17
2019-05-23T14:08:13.569Z,13.50
2019-05-23T14:10:43.773Z,14.87
2019-05-23T14:13:13.371Z,12.87
2019-05-23T14:15:44.650Z,14.50
2019-05-23T14:18:18.139Z,12.90
2019-05-23T14:20:47.563Z,9.97
2019-05-23T14:23:29.984Z,14.03
2019-05-23T14:25:59.792Z,10.70
2019-05-23T14:28:32.207Z,13.63
2019-05-23T14:31:23.055Z,13.17
2019-05-23T14:34:09.578Z,10.30
2019-05-23T14:36:57.781Z,11.07
2019-05-23T14:39:39.438Z,10.87
2019-05-23T14:42:16.383Z,12.63
2019-05-23T14:44:45.720Z,10.23
2019-05-23T14:47:32.714Z,9.00
2019-05-23T14:50:15.680Z,11.63
2019-05-23T14:52:45.220Z,9.27
2019-05-23T14:55:14.474Z,12.97
2019-05-23T14:57:43.981Z,11.20
2019-05-23T15:00:13.565Z,11.27
2019-05-23T15:02:42.959Z,9.80
2019-05-23T15:05:13.348Z,8.10
2019-05-23T15:07:42.758Z,7.70
2019-05-23T15:10:13.041Z,9.87
2019-05-23T15:12:42.771Z,8.93
2019-05-23T15:15:12.730Z,12.93
2019-05-23T15:17:42.349Z,6.97
2019-05-23T15:20:11.873Z,7.30
2019-05-23T15:22:41.137Z,5.83
2019-05-23T15:25:13.154Z,6.17
2019-05-23T15:27:42.838Z,7.10
2019-05-23T15:30:12.539Z,7.07
2019-05-23T15:32:41.741Z,5.75
2019-05-23T15:35:11.562Z,7.13
2019-05-23T15:37:40.917Z,5.40
2019-05-23T15:40:10.387Z,6.00
2019-05-23T15:42:39.906Z,5.90
2019-05-23T15:45:09.501Z,5.03
2019-05-23T15:47:38.961Z,5.40
2019-05-23T15:50:11.845Z,6.30
2019-05-23T15:52:47.525Z,5.47
2019-05-23T15:55:35.135Z,6.60
2019-05-23T15:58:11.782Z,4.60
2019-05-23T16:01:06.542Z,7.53
2019-05-23T16:03:41.921Z,5.22
2019-05-23T16:06:15.766Z,6.25
2019-05-23T16:08:45.073Z,5.12
2019-05-23T16:11:17.422Z,5.03
2019-05-23T16:13:45.579Z,6.40
2019-05-23T16:16:14.934Z,7.72
2019-05-23T16:18:44.659Z,6.87
2019-05-23T16:21:16.070Z,6.40
2019-05-23T16:23:45.362Z,6.95
2019-05-23T16:26:14.679Z,5.80
2019-05-23T16:28:44.350Z,5.17
2019-05-23T16:31:13.711Z,4.72
2019-05-23T16:33:42.940Z,6.28
2019-05-23T16:36:12.618Z,5.30
2019-05-23T16:38:41.929Z,4.55
2019-05-23T16:41:11.840Z,4.42
2019-05-23T16:43:41.466Z,5.90
2019-05-23T16:46:10.739Z,6.83
2019-05-23T16:48:40.053Z,6.72
2019-05-23T16:51:09.563Z,4.47
2019-05-23T16:53:39.245Z,6.17
2019-05-23T16:56:16.878Z,5.55
2019-05-23T16:59:04.405Z,5.47
2019-05-23T17:02:00.420Z,6.20
2019-05-23T17:04:37.217Z,5.12
2019-05-23T17:07:25.603Z,5.45
2019-05-23T17:10:08.598Z,7.90
2019-05-23T17:12:41.465Z,6.65
2019-05-23T17:15:28.511Z,4.22
2019-05-23T17:18:19.592Z,5.70
2019-05-23T17:20:58.759Z,4.05
2019-05-23T17:23:42.701Z,5.25
2019-05-23T17:26:27.082Z,3.58
2019-05-23T17:28:56.486Z,5.35
2019-05-23T17:31:31.898Z,4.67
2019-05-23T17:34:01.675Z,7.20
2019-05-23T17:36:30.925Z,4.20
2019-05-23T17:39:00.138Z,5.03
2019-05-23T17:41:29.730Z,6.17
2019-05-23T17:43:59.070Z,4.28
2019-05-23T17:46:28.417Z,2.83
2019-05-23T17:48:58.141Z,3.73
2019-05-23T17:51:27.836Z,3.57
2019-05-23T17:53:57.103Z,6.60
2019-05-23T17:56:26.740Z,4.07
2019-05-23T17:58:56.300Z,4.07
2019-05-23T18:01:27.387Z,5.27
2019-05-23T18:03:56.617Z,6.00
2019-05-23T18:06:27.602Z,6.00
2019-05-23T18:08:57.146Z,7.00
2019-05-23T18:11:27.384Z,9.47
2019-05-23T18:13:57.587Z,4.23
2019-05-23T18:16:27.092Z,7.13
2019-05-23T18:18:56.389Z,6.77
2019-05-23T18:21:25.641Z,5.50
2019-05-23T18:23:56.173Z,5.73
2019-05-23T18:26:25.455Z,6.57
2019-05-23T18:28:55.214Z,5.60
2019-05-23T18:31:27.713Z,4.80
2019-05-23T18:33:58.417Z,3.40
2019-05-23T18:36:28.587Z,9.67
2019-05-23T18:38:57.950Z,3.37
2019-05-23T18:41:28.161Z,4.33
2019-05-23T18:43:59.720Z,2.57
2019-05-23T18:46:39.226Z,3.23
2019-05-23T18:49:09.980Z,5.03
2019-05-23T18:51:40.422Z,3.37
2019-05-23T18:54:10.099Z,4.17
2019-05-23T18:56:39.443Z,5.03
2019-05-23T18:59:12.007Z,3.70
2019-05-23T19:01:42.007Z,3.50
2019-05-23T19:04:11.629Z,5.40
2019-05-23T19:06:41.231Z,4.93
2019-05-23T19:09:13.679Z,5.00
2019-05-23T19:11:43.515Z,5.20
2019-05-23T19:14:12.905Z,5.47
2019-05-23T19:16:42.167Z,3.37
2019-05-23T19:19:11.982Z,3.43
2019-05-23T19:21:41.376Z,3.13
2019-05-23T19:24:11.196Z,3.77
2019-05-23T19:26:40.651Z,5.30
2019-05-23T19:29:11.144Z,2.73
2019-05-23T19:31:40.382Z,3.47
2019-05-23T19:34:10.191Z,2.97
2019-05-23T19:36:39.451Z,4.20
2019-05-23T19:39:08.893Z,4.17
2019-05-23T19:41:38.888Z,3.10
2019-05-23T19:44:08.399Z,3.07
2019-05-23T19:46:37.659Z,3.90
2019-05-23T19:49:10.112Z,3.30
2019-05-23T19:51:39.902Z,3.13
2019-05-23T19:54:09.568Z,4.23
2019-05-23T19:56:39.008Z,7.67
2019-05-23T19:59:08.281Z,2.23
2019-05-23T20:01:53.971Z,3.67
2019-05-23T20:04:28.472Z,3.40
2019-05-23T20:06:55.662Z,1.73
2019-05-23T20:09:25.805Z,2.80
2019-05-23T20:11:55.216Z,3.13
2019-05-23T20:14:24.793Z,7.70
2019-05-23T20:16:54.150Z,4.27
2019-05-23T20:19:23.390Z,3.60
2019-05-23T20:21:52.879Z,7.03
2019-05-23T20:24:22.528Z,4.87
2019-05-23T20:26:51.875Z,3.10
2019-05-23T20:29:23.872Z,4.00
2019-05-23T20:31:53.631Z,4.00
2019-05-23T20:34:23.009Z,3.33
2019-05-23T20:36:52.479Z,3.00
2019-05-23T20:39:22.824Z,3.67
2019-05-23T20:41:51.988Z,4.80
2019-05-23T20:44:21.511Z,2.13
2019-05-23T20:46:51.460Z,3.10
2019-05-23T20:49:21.200Z,5.60
2019-05-23T20:51:54.135Z,2.47
2019-05-23T20:54:23.464Z,5.77
2019-05-23T20:56:52.737Z,2.07
2019-05-23T20:59:22.455Z,3.30
2019-05-23T21:01:52.171Z,4.23
2019-05-23T21:04:21.433Z,4.83
2019-05-23T21:06:53.303Z,2.73
2019-05-23T21:09:22.559Z,4.80
2019-05-23T21:11:54.183Z,5.90
2019-05-23T21:14:23.563Z,5.97
2019-05-23T21:16:52.807Z,5.23
2019-05-23T21:19:22.178Z,3.80
2019-05-23T21:21:51.541Z,5.60
2019-05-23T21:24:20.892Z,3.20
2019-05-23T21:26:50.110Z,5.80
2019-05-23T21:29:19.668Z,2.60
2019-05-23T21:31:48.914Z,3.60
2019-05-23T21:34:21.858Z,2.27
2019-05-23T21:36:49.313Z,4.73
2019-05-23T21:39:18.955Z,3.70
2019-05-23T21:41:50.499Z,4.30
2019-05-23T21:44:19.916Z,4.03
2019-05-23T21:46:49.266Z,3.77
2019-05-23T21:49:18.582Z,2.50
2019-05-23T21:51:51.460Z,4.27
2019-05-23T21:54:19.111Z,3.27
2019-05-23T21:56:48.321Z,2.50
2019-05-23T21:59:17.863Z,2.70
2019-05-23T22:02:03.159Z,3.57
2019-05-23T22:04:43.770Z,3.37
2019-05-23T22:07:13.256Z,4.07
2019-05-23T22:09:43.605Z,5.17
2019-05-23T22:12:14.589Z,4.37
2019-05-23T22:14:44.406Z,2.73
2019-05-23T22:17:13.822Z,4.63
2019-05-23T22:19:43.449Z,3.63
2019-05-23T22:22:13.173Z,4.27
2019-05-23T22:24:42.481Z,3.80
2019-05-23T22:27:11.792Z,3.20
2019-05-23T22:29:41.421Z,2.70
2019-05-23T22:32:12.300Z,2.33
2019-05-23T22:34:48.528Z,4.93
2019-05-23T22:37:21.862Z,2.13
2019-05-23T22:39:51.410Z,4.13
2019-05-23T22:42:21.131Z,5.07
2019-05-23T22:44:50.643Z,2.40
2019-05-23T22:47:20.050Z,2.30
2019-05-23T22:49:49.363Z,3.00
2019-05-23T22:52:18.584Z,4.87
2019-05-23T22:54:48.001Z,2.93
2019-05-23T22:57:17.210Z,3.07
2019-05-23T22:59:46.428Z,2.40
2019-05-23T23:02:18.114Z,6.97
2019-05-23T23:04:47.448Z,3.20
2019-05-23T23:07:16.759Z,4.40
2019-05-23T23:09:46.538Z,3.10
2019-05-23T23:12:17.312Z,2.37
2019-05-23T23:14:46.604Z,1.63
2019-05-23T23:17:17.620Z,3.20
2019-05-23T23:19:47.134Z,2.00
2019-05-23T23:22:16.347Z,2.07
2019-05-23T23:24:45.821Z,1.63
2019-05-23T23:27:15.030Z,2.93
2019-05-23T23:29:44.238Z,4.13
2019-05-23T23:32:14.038Z,8.00
2019-05-23T23:34:43.250Z,3.33
2019-05-23T23:37:12.500Z,4.40
2019-05-23T23:39:42.030Z,2.40
2019-05-23T23:42:11.255Z,2.13
2019-05-23T23:44:39.502Z,1.60
2019-05-23T23:47:26.907Z,2.17
2019-05-23T23:50:13.958Z,1.63
2019-05-23T23:53:00.867Z,2.63
2019-05-23T23:55:47.850Z,1.67
2019-05-23T23:58:20.045Z,1.70
